createdAt,value
2018-03-22T00:01:38.301Z,0.51
2018-03-22T00:04:06.627Z,0.52
2018-03-22T00:06:35.118Z,0.52
2018-03-22T00:09:03.459Z,0.48
2018-03-22T00:11:31.763Z,0.43
2018-03-22T00:14:00.100Z,0.41
2018-03-22T00:16:28.487Z,0.37
2018-03-22T00:18:56.837Z,0.31
2018-03-22T00:21:25.156Z,0.33
2018-03-22T00:23:53.571Z,0.34
2018-03-22T00:26:21.909Z,0.44
2018-03-22T00:28:50.235Z,0.41
2018-03-22T00:31:28.354Z,0.28
2018-03-22T00:33:56.727Z,0.33
2018-03-22T00:36:25.147Z,0.36
2018-03-22T00:38:53.458Z,0.33
2018-03-22T00:41:21.789Z,0.36
2018-03-22T00:43:50.103Z,0.38
2018-03-22T00:46:18.462Z,0.41
2018-03-22T00:48:46.806Z,0.45
2018-03-22T00:51:15.206Z,0.42
2018-03-22T00:53:43.522Z,0.41
2018-03-22T00:56:11.863Z,0.31
2018-03-22T00:58:40.211Z,0.30
2018-03-22T01:01:08.533Z,0.26
2018-03-22T01:03:36.857Z,0.27
2018-03-22T01:06:05.173Z,0.21
2018-03-22T01:08:33.485Z,0.32
2018-03-22T01:11:01.838Z,0.33
2018-03-22T01:13:30.169Z,0.40
2018-03-22T01:15:58.711Z,0.39
2018-03-22T01:18:27.064Z,0.45
2018-03-22T01:20:55.655Z,0.74
2018-03-22T01:23:23.955Z,1.08
2018-03-22T01:25:52.363Z,1.54
2018-03-22T01:28:20.718Z,1.67
2018-03-22T01:30:49.108Z,1.76
2018-03-22T01:33:17.435Z,1.75
2018-03-22T01:35:45.781Z,1.84
2018-03-22T01:38:14.137Z,1.98
2018-03-22T01:40:42.473Z,2.04
2018-03-22T01:43:10.954Z,2.02
2018-03-22T01:45:39.370Z,1.94
2018-03-22T01:48:07.726Z,1.88
2018-03-22T01:50:36.036Z,1.84
2018-03-22T01:53:13.879Z,1.75
2018-03-22T01:55:42.190Z,1.74
2018-03-22T01:58:10.527Z,1.68
2018-03-22T02:00:38.899Z,1.65
2018-03-22T02:03:07.208Z,1.54
2018-03-22T02:05:35.529Z,1.45
2018-03-22T02:08:03.848Z,1.32
2018-03-22T02:10:32.157Z,1.19
2018-03-22T02:13:00.563Z,1.07
2018-03-22T02:15:28.943Z,0.99
2018-03-22T02:17:57.288Z,0.88
2018-03-22T02:20:25.619Z,0.89
2018-03-22T02:22:53.961Z,0.93
2018-03-22T02:25:22.310Z,0.91
2018-03-22T02:27:50.637Z,0.91
2018-03-22T02:30:18.987Z,0.88
2018-03-22T02:32:47.374Z,0.84
2018-03-22T02:35:15.824Z,0.79
2018-03-22T02:37:44.135Z,0.81
2018-03-22T02:40:12.463Z,0.77
2018-03-22T02:42:40.954Z,0.78
2018-03-22T02:45:09.385Z,0.72
2018-03-22T02:47:37.695Z,0.65
2018-03-22T02:50:06.029Z,0.66
2018-03-22T02:52:34.414Z,0.68
2018-03-22T02:55:02.732Z,0.72
2018-03-22T02:57:31.058Z,0.60
2018-03-22T02:59:59.497Z,0.60
2018-03-22T03:02:27.847Z,0.57
2018-03-22T03:04:56.195Z,0.43
2018-03-22T03:07:24.541Z,0.34
2018-03-22T03:09:52.883Z,0.33
2018-03-22T03:12:21.203Z,0.23
2018-03-22T03:14:49.532Z,0.18
2018-03-22T03:17:17.853Z,0.20
2018-03-22T03:19:46.200Z,0.23
2018-03-22T03:22:14.504Z,0.10
2018-03-22T03:24:42.823Z,0.08
2018-03-22T03:27:11.144Z,0.10
2018-03-22T03:29:39.460Z,0.16
2018-03-22T03:32:07.786Z,0.26
2018-03-22T03:34:36.179Z,0.15
2018-03-22T03:37:07.368Z,0.10
2018-03-22T03:39:35.696Z,0.05
2018-03-22T03:42:04.019Z,0.17
2018-03-22T03:44:32.448Z,0.23
2018-03-22T03:47:01.132Z,0.35
2018-03-22T03:49:29.454Z,0.40
2018-03-22T03:51:57.926Z,0.55
2018-03-22T03:54:26.283Z,0.80
2018-03-22T03:56:54.632Z,0.99
2018-03-22T03:59:22.936Z,1.08
2018-03-22T04:01:51.297Z,1.27
2018-03-22T04:04:19.622Z,1.29
2018-03-22T04:06:48.070Z,1.41
2018-03-22T04:09:16.386Z,1.41
2018-03-22T04:11:44.845Z,1.49
2018-03-22T04:14:13.217Z,1.60
2018-03-22T04:16:41.608Z,1.66
2018-03-22T04:19:09.917Z,1.66
2018-03-22T04:21:38.336Z,1.73
2018-03-22T04:24:06.667Z,1.69
2018-03-22T04:26:35.024Z,1.75
2018-03-22T04:29:03.352Z,1.79
2018-03-22T04:31:31.772Z,1.85
2018-03-22T04:34:00.151Z,1.83
2018-03-22T04:36:28.524Z,1.84
2018-03-22T04:38:57.294Z,1.94
2018-03-22T04:41:25.605Z,1.94
2018-03-22T04:43:53.943Z,1.93
2018-03-22T04:46:22.249Z,1.90
2018-03-22T04:48:50.613Z,1.97
2018-03-22T04:51:18.921Z,2.03
2018-03-22T04:53:47.246Z,2.04
2018-03-22T04:56:15.552Z,1.98
2018-03-22T04:58:43.986Z,1.98
2018-03-22T05:01:12.295Z,1.94
2018-03-22T05:03:40.633Z,1.98
2018-03-22T05:06:08.973Z,1.98
2018-03-22T05:08:37.302Z,2.00
2018-03-22T05:11:05.649Z,2.03
2018-03-22T05:13:33.995Z,2.02
2018-03-22T05:16:02.301Z,1.96
2018-03-22T05:18:30.696Z,1.92
2018-03-22T05:20:59.016Z,1.95
2018-03-22T05:23:27.390Z,1.97
2018-03-22T05:25:55.944Z,1.98
2018-03-22T05:28:25.094Z,1.97
2018-03-22T05:30:53.448Z,2.01
2018-03-22T05:33:22.113Z,2.06
2018-03-22T05:35:50.490Z,2.02
2018-03-22T05:38:18.800Z,2.05
2018-03-22T05:40:47.151Z,2.08
2018-03-22T05:43:15.518Z,2.75
2018-03-22T05:45:43.867Z,3.33
2018-03-22T05:48:12.184Z,3.36
2018-03-22T05:50:41.377Z,3.14
2018-03-22T05:53:09.714Z,3.59
2018-03-22T05:55:38.254Z,3.63
2018-03-22T05:58:06.573Z,3.81
2018-03-22T06:00:34.892Z,3.55
2018-03-22T06:03:03.239Z,3.89
2018-03-22T06:05:31.512Z,3.50
2018-03-22T06:07:59.923Z,3.36
2018-03-22T06:10:29.271Z,3.17
2018-03-22T06:12:58.177Z,2.96
2018-03-22T06:15:26.526Z,2.98
2018-03-22T06:17:55.969Z,2.91
2018-03-22T06:20:26.519Z,2.89
2018-03-22T06:22:55.263Z,2.91
2018-03-22T06:25:23.609Z,3.05
2018-03-22T06:27:51.910Z,3.14
2018-03-22T06:30:20.256Z,3.22
2018-03-22T06:32:48.576Z,3.09
2018-03-22T06:35:16.881Z,3.16
2018-03-22T06:37:45.236Z,3.11
2018-03-22T06:40:13.543Z,3.04
2018-03-22T06:42:41.876Z,3.04
2018-03-22T06:45:10.186Z,3.08
2018-03-22T06:47:38.519Z,3.06
2018-03-22T06:50:06.838Z,3.18
2018-03-22T06:52:35.162Z,3.17
2018-03-22T06:55:03.487Z,3.33
2018-03-22T06:57:31.816Z,3.42
2018-03-22T07:00:00.137Z,3.55
2018-03-22T07:02:28.562Z,3.49
2018-03-22T07:04:56.999Z,3.72
2018-03-22T07:07:25.384Z,3.94
2018-03-22T07:09:54.032Z,4.23
2018-03-22T07:12:22.824Z,4.23
2018-03-22T07:14:51.185Z,4.17
2018-03-22T07:17:19.517Z,4.34
2018-03-22T07:19:47.866Z,4.65
2018-03-22T07:22:16.237Z,4.75
2018-03-22T07:24:44.572Z,4.23
2018-03-22T07:27:12.897Z,3.86
2018-03-22T07:29:41.282Z,4.01
2018-03-22T07:32:09.666Z,3.99
2018-03-22T07:34:38.000Z,3.91
2018-03-22T07:37:06.336Z,4.22
2018-03-22T07:39:34.696Z,4.51
2018-03-22T07:42:03.492Z,4.76
2018-03-22T07:44:37.615Z,5.03
2018-03-22T07:47:06.067Z,4.88
2018-03-22T07:49:34.407Z,4.58
2018-03-22T07:52:02.747Z,4.59
2018-03-22T07:54:31.098Z,4.81
2018-03-22T07:56:59.489Z,5.07
2018-03-22T07:59:27.832Z,5.28
2018-03-22T08:01:56.168Z,5.58
2018-03-22T08:04:24.533Z,5.76
2018-03-22T08:06:52.870Z,5.68
2018-03-22T08:09:21.206Z,5.57
2018-03-22T08:11:49.516Z,5.35
2018-03-22T08:14:17.962Z,5.24
2018-03-22T08:16:46.304Z,4.93
2018-03-22T08:19:14.685Z,4.65
2018-03-22T08:21:43.031Z,4.29
2018-03-22T08:24:11.360Z,4.11
2018-03-22T08:26:39.697Z,3.93
2018-03-22T08:29:08.484Z,3.84
2018-03-22T08:31:36.854Z,3.75
2018-03-22T08:34:05.224Z,3.55
2018-03-22T08:36:33.540Z,3.44
2018-03-22T08:39:01.875Z,3.42
2018-03-22T08:41:30.202Z,3.39
2018-03-22T08:43:58.550Z,3.43
2018-03-22T08:46:26.968Z,3.31
2018-03-22T08:48:55.275Z,3.26
2018-03-22T08:51:23.659Z,3.22
2018-03-22T08:53:52.041Z,3.20
2018-03-22T08:56:20.441Z,3.40
2018-03-22T08:58:48.773Z,3.42
2018-03-22T09:01:17.118Z,3.61
2018-03-22T09:03:45.582Z,3.78
2018-03-22T09:06:14.247Z,3.85
2018-03-22T09:08:42.589Z,4.00
2018-03-22T09:11:11.038Z,4.27
2018-03-22T09:13:39.346Z,4.44
2018-03-22T09:16:07.996Z,4.39
2018-03-22T09:18:36.375Z,4.71
2018-03-22T09:21:04.714Z,4.84
2018-03-22T09:23:33.060Z,4.72
2018-03-22T09:26:01.447Z,4.89
2018-03-22T09:28:29.787Z,5.05
2018-03-22T09:30:58.130Z,5.11
2018-03-22T09:33:26.456Z,5.00
2018-03-22T09:35:54.848Z,5.09
2018-03-22T09:38:23.283Z,5.01
2018-03-22T09:40:51.592Z,4.85
2018-03-22T09:43:20.308Z,4.86
2018-03-22T09:45:48.626Z,4.89
2018-03-22T09:48:16.967Z,4.93
2018-03-22T09:50:45.290Z,4.77
2018-03-22T09:53:13.782Z,4.65
2018-03-22T09:55:42.170Z,4.38
2018-03-22T09:58:10.557Z,4.29
2018-03-22T10:00:38.949Z,4.22
2018-03-22T10:03:07.344Z,4.25
2018-03-22T10:05:35.722Z,4.29
2018-03-22T10:08:04.126Z,4.28
2018-03-22T10:10:32.530Z,4.23
2018-03-22T10:13:00.889Z,4.25
2018-03-22T10:15:29.282Z,4.25
2018-03-22T10:17:57.664Z,4.27
2018-03-22T10:20:25.979Z,4.23
2018-03-22T10:22:54.347Z,4.33
2018-03-22T10:25:22.700Z,4.21
2018-03-22T10:27:51.224Z,4.23
2018-03-22T10:30:19.540Z,4.28
2018-03-22T10:32:47.881Z,4.23
2018-03-22T10:35:16.241Z,4.26
2018-03-22T10:37:44.593Z,4.18
2018-03-22T10:40:12.936Z,4.11
2018-03-22T10:42:41.253Z,4.06
2018-03-22T10:45:09.590Z,4.16
2018-03-22T10:47:37.905Z,4.08
2018-03-22T10:50:06.244Z,4.17
2018-03-22T10:52:34.556Z,4.21
2018-03-22T10:55:02.928Z,4.21
2018-03-22T10:57:31.299Z,4.06
2018-03-22T10:59:59.664Z,3.91
2018-03-22T11:02:33.520Z,3.83
2018-03-22T11:05:01.866Z,3.89
2018-03-22T11:07:30.296Z,3.77
2018-03-22T11:09:59.057Z,3.74
2018-03-22T11:12:27.425Z,3.66
2018-03-22T11:14:55.778Z,3.55
2018-03-22T11:17:24.120Z,3.40
2018-03-22T11:19:52.437Z,3.38
2018-03-22T11:22:20.764Z,3.32
2018-03-22T11:24:49.095Z,3.34
2018-03-22T11:27:17.423Z,3.45
2018-03-22T11:29:45.812Z,3.52
2018-03-22T11:32:14.192Z,3.59
2018-03-22T11:34:42.528Z,3.57
2018-03-22T11:37:10.976Z,3.48
2018-03-22T11:39:39.310Z,3.54
2018-03-22T11:42:07.654Z,3.70
2018-03-22T11:44:36.137Z,3.72
2018-03-22T11:47:04.456Z,3.67
2018-03-22T11:49:32.772Z,3.67
2018-03-22T11:52:01.114Z,3.81
2018-03-22T11:54:29.505Z,3.89
2018-03-22T11:56:57.945Z,3.83
2018-03-22T11:59:26.342Z,3.82
2018-03-22T12:01:55.401Z,3.77
2018-03-22T12:04:23.692Z,3.88
2018-03-22T12:06:52.037Z,3.98
2018-03-22T12:09:20.349Z,4.00
2018-03-22T12:11:48.707Z,4.02
2018-03-22T12:14:17.044Z,4.02
2018-03-22T12:16:45.382Z,3.99
2018-03-22T12:19:13.706Z,3.96
2018-03-22T12:21:42.142Z,3.94
2018-03-22T12:24:10.441Z,4.02
2018-03-22T12:26:38.810Z,4.03
2018-03-22T12:29:07.138Z,4.03
2018-03-22T12:31:35.484Z,3.99
2018-03-22T12:34:03.803Z,4.11
2018-03-22T12:36:32.108Z,3.98
2018-03-22T12:39:00.466Z,4.02
2018-03-22T12:41:28.798Z,4.02
2018-03-22T12:43:57.196Z,4.05
2018-03-22T12:46:25.557Z,4.16
2018-03-22T12:48:53.894Z,4.09
2018-03-22T12:51:22.274Z,4.16
2018-03-22T12:53:50.615Z,4.16
2018-03-22T12:56:18.976Z,4.17
2018-03-22T12:58:48.176Z,4.23
2018-03-22T13:01:16.549Z,4.22
2018-03-22T13:03:44.873Z,4.23
2018-03-22T13:06:13.365Z,4.14
2018-03-22T13:08:41.706Z,4.20
2018-03-22T13:11:10.050Z,4.20
2018-03-22T13:13:38.391Z,4.30
2018-03-22T13:16:07.029Z,4.40
2018-03-22T13:18:35.353Z,4.33
2018-03-22T13:21:03.679Z,4.30
2018-03-22T13:23:32.097Z,4.37
2018-03-22T13:26:00.424Z,4.42
2018-03-22T13:28:28.754Z,4.31
2018-03-22T13:30:57.197Z,4.24
2018-03-22T13:33:25.657Z,4.22
2018-03-22T13:35:54.031Z,4.16
2018-03-22T13:38:22.356Z,4.18
2018-03-22T13:40:50.713Z,4.15
2018-03-22T13:43:19.049Z,4.26
2018-03-22T13:45:47.456Z,4.12
2018-03-22T13:48:15.774Z,4.05
2018-03-22T13:50:44.126Z,3.98
2018-03-22T13:53:12.486Z,4.00
2018-03-22T13:55:40.893Z,3.90
2018-03-22T13:58:09.245Z,3.77
2018-03-22T14:00:37.595Z,3.71
2018-03-22T14:03:05.906Z,3.67
2018-03-22T14:05:34.232Z,3.58
2018-03-22T14:08:02.659Z,3.50
2018-03-22T14:10:30.981Z,3.41
2018-03-22T14:12:59.360Z,3.23
2018-03-22T14:15:27.709Z,3.20
2018-03-22T14:17:56.059Z,3.33
2018-03-22T14:20:24.503Z,3.18
2018-03-22T14:22:52.886Z,3.22
2018-03-22T14:25:21.268Z,3.19
2018-03-22T14:27:49.684Z,3.28
2018-03-22T14:30:18.034Z,3.12
2018-03-22T14:32:46.454Z,2.95
2018-03-22T14:35:14.769Z,2.94
2018-03-22T14:37:43.129Z,3.02
2018-03-22T14:40:11.460Z,2.95
2018-03-22T14:42:39.835Z,2.83
2018-03-22T14:45:08.295Z,2.80
2018-03-22T14:47:36.649Z,2.82
2018-03-22T14:50:05.037Z,2.75
2018-03-22T14:52:33.386Z,2.72
2018-03-22T14:55:01.826Z,2.81
2018-03-22T14:57:30.156Z,2.84
2018-03-22T14:59:58.500Z,2.87
2018-03-22T15:02:26.859Z,2.86
2018-03-22T15:04:55.182Z,2.92
2018-03-22T15:07:23.533Z,2.89
2018-03-22T15:09:51.997Z,2.90
2018-03-22T15:12:20.312Z,2.99
2018-03-22T15:14:48.741Z,2.89
2018-03-22T15:17:17.266Z,2.96
2018-03-22T15:19:45.596Z,2.99
2018-03-22T15:22:13.979Z,2.96
2018-03-22T15:24:42.260Z,3.01
2018-03-22T15:27:10.584Z,3.07
2018-03-22T15:29:38.900Z,2.91
2018-03-22T15:32:07.244Z,2.89
2018-03-22T15:34:35.666Z,2.97
2018-03-22T15:37:03.995Z,2.91
2018-03-22T15:39:32.389Z,2.90
2018-03-22T15:42:00.726Z,2.89
2018-03-22T15:44:29.136Z,2.91
2018-03-22T15:46:57.538Z,2.82
2018-03-22T15:49:25.870Z,2.85
2018-03-22T15:51:54.254Z,2.82
2018-03-22T15:54:22.571Z,2.74
2018-03-22T15:56:50.884Z,2.74
2018-03-22T15:59:19.280Z,2.80
2018-03-22T16:01:47.598Z,2.90
2018-03-22T16:04:15.932Z,2.87
2018-03-22T16:06:44.421Z,2.89
2018-03-22T16:09:12.897Z,2.87
2018-03-22T16:11:41.213Z,2.88
2018-03-22T16:14:09.580Z,2.86
2018-03-22T16:16:37.891Z,2.78
2018-03-22T16:19:06.227Z,2.76
2018-03-22T16:21:34.584Z,2.83
2018-03-22T16:24:02.989Z,2.81
2018-03-22T16:26:31.310Z,2.76
2018-03-22T16:28:59.707Z,2.78
2018-03-22T16:31:28.093Z,2.74
2018-03-22T16:33:56.500Z,2.80
2018-03-22T16:36:24.865Z,2.82
2018-03-22T16:38:53.222Z,2.83
2018-03-22T16:41:21.600Z,2.83
2018-03-22T16:43:49.958Z,2.87
2018-03-22T16:46:18.299Z,2.92
2018-03-22T16:48:46.627Z,2.95
2018-03-22T16:51:14.944Z,2.94
2018-03-22T16:53:43.256Z,2.95
2018-03-22T16:56:11.590Z,2.96
2018-03-22T16:58:39.990Z,2.93
2018-03-22T17:01:08.399Z,2.99
2018-03-22T17:03:36.823Z,2.92
2018-03-22T17:06:05.608Z,2.97
2018-03-22T17:08:33.982Z,2.99
2018-03-22T17:11:02.368Z,2.97
2018-03-22T17:13:30.771Z,2.99
2018-03-22T17:15:59.164Z,2.96
2018-03-22T17:18:27.552Z,3.00
2018-03-22T17:20:55.969Z,3.02
2018-03-22T17:23:24.404Z,3.03
2018-03-22T17:25:52.743Z,3.03
2018-03-22T17:28:21.068Z,3.04
2018-03-22T17:30:49.547Z,3.02
2018-03-22T17:33:17.884Z,3.04
2018-03-22T17:35:46.246Z,3.05
2018-03-22T17:38:14.571Z,3.08
2018-03-22T17:40:42.973Z,3.07
2018-03-22T17:43:11.331Z,3.02
2018-03-22T17:45:39.669Z,3.04
2018-03-22T17:48:08.031Z,3.05
2018-03-22T17:50:36.341Z,3.01
2018-03-22T17:53:04.752Z,2.99
2018-03-22T17:55:33.525Z,3.05
2018-03-22T17:58:01.893Z,2.97
2018-03-22T18:00:30.603Z,2.99
2018-03-22T18:02:58.966Z,2.95
2018-03-22T18:05:27.376Z,2.94
2018-03-22T18:07:55.776Z,2.89
2018-03-22T18:10:24.117Z,2.85
2018-03-22T18:12:52.469Z,2.86
2018-03-22T18:15:20.783Z,2.83
2018-03-22T18:17:49.208Z,2.76
2018-03-22T18:20:17.589Z,2.77
2018-03-22T18:22:45.986Z,2.80
2018-03-22T18:25:14.570Z,2.76
2018-03-22T18:27:43.068Z,2.74
2018-03-22T18:30:11.444Z,2.73
2018-03-22T18:32:39.794Z,2.74
2018-03-22T18:35:08.113Z,2.82
2018-03-22T18:37:36.527Z,2.77
2018-03-22T18:40:04.940Z,2.74
2018-03-22T18:42:33.361Z,2.96
2018-03-22T18:45:01.774Z,3.49
2018-03-22T18:47:30.133Z,3.76
2018-03-22T18:49:58.469Z,4.07
2018-03-22T18:52:27.050Z,3.59
2018-03-22T18:54:55.381Z,3.24
2018-03-22T18:57:24.143Z,3.00
2018-03-22T18:59:52.457Z,2.96
2018-03-22T19:02:20.857Z,2.86
2018-03-22T19:04:49.175Z,2.83
2018-03-22T19:07:17.584Z,2.86
2018-03-22T19:09:45.854Z,2.85
2018-03-22T19:12:14.205Z,2.82
2018-03-22T19:14:42.542Z,2.79
2018-03-22T19:17:11.114Z,2.75
2018-03-22T19:19:39.576Z,2.79
2018-03-22T19:22:07.879Z,2.79
2018-03-22T19:24:36.297Z,2.77
2018-03-22T19:27:05.655Z,2.73
2018-03-22T19:29:34.164Z,2.76
2018-03-22T19:32:02.638Z,2.74
2018-03-22T19:34:30.962Z,2.81
2018-03-22T19:36:59.337Z,2.78
2018-03-22T19:39:27.778Z,2.82
2018-03-22T19:41:56.150Z,2.78
2018-03-22T19:44:24.893Z,2.78
2018-03-22T19:46:53.357Z,2.76
2018-03-22T19:49:21.673Z,2.69
2018-03-22T19:51:50.064Z,2.74
2018-03-22T19:54:18.448Z,2.75
2018-03-22T19:56:46.954Z,2.73
2018-03-22T19:59:15.345Z,2.73
2018-03-22T20:01:43.739Z,2.73
2018-03-22T20:04:12.069Z,2.74
2018-03-22T20:06:40.404Z,2.83
2018-03-22T20:09:08.732Z,2.85
2018-03-22T20:11:37.060Z,2.84
2018-03-22T20:14:07.831Z,2.83
2018-03-22T20:16:36.218Z,2.82
2018-03-22T20:19:04.630Z,2.81
2018-03-22T20:21:33.198Z,2.82
2018-03-22T20:24:01.715Z,2.76
2018-03-22T20:26:30.036Z,2.75
2018-03-22T20:28:58.400Z,2.80
2018-03-22T20:31:26.783Z,2.83
2018-03-22T20:33:55.131Z,2.80
2018-03-22T20:36:23.570Z,2.83
2018-03-22T20:38:51.901Z,2.79
2018-03-22T20:41:20.415Z,2.78
2018-03-22T20:43:48.741Z,2.74
2018-03-22T20:46:17.103Z,2.83
2018-03-22T20:48:45.530Z,2.83
2018-03-22T20:51:14.079Z,2.84
2018-03-22T20:53:42.467Z,2.81
2018-03-22T20:56:10.796Z,2.88
2018-03-22T20:58:39.154Z,2.94
2018-03-22T21:01:07.478Z,2.96
2018-03-22T21:03:35.826Z,3.01
2018-03-22T21:06:04.356Z,2.99
2018-03-22T21:08:32.814Z,2.94
2018-03-22T21:11:01.172Z,2.89
2018-03-22T21:13:29.538Z,2.93
2018-03-22T21:15:57.973Z,2.91
2018-03-22T21:18:26.354Z,2.89
2018-03-22T21:20:54.824Z,2.97
2018-03-22T21:23:23.224Z,2.91
2018-03-22T21:25:51.564Z,2.88
2018-03-22T21:28:19.888Z,2.91
2018-03-22T21:30:48.221Z,2.97
2018-03-22T21:33:16.547Z,3.00
2018-03-22T21:35:47.217Z,3.01
2018-03-22T21:38:17.771Z,3.01
2018-03-22T21:40:46.116Z,3.02
2018-03-22T21:43:14.560Z,3.02
2018-03-22T21:45:42.933Z,3.01
2018-03-22T21:48:11.698Z,2.99
2018-03-22T21:50:47.931Z,2.99
2018-03-22T21:53:19.956Z,3.03
2018-03-22T21:55:48.303Z,2.99
2018-03-22T21:58:16.628Z,3.07
2018-03-22T22:00:44.961Z,3.07
2018-03-22T22:03:13.279Z,3.05
2018-03-22T22:05:41.621Z,3.02
2018-03-22T22:08:09.943Z,3.00
2018-03-22T22:10:38.359Z,2.96
2018-03-22T22:13:06.782Z,2.98
2018-03-22T22:15:35.113Z,2.95
2018-03-22T22:18:03.429Z,3.02
2018-03-22T22:20:31.757Z,3.07
2018-03-22T22:23:00.080Z,3.08
2018-03-22T22:25:28.455Z,3.08
2018-03-22T22:27:56.893Z,3.06
2018-03-22T22:30:25.293Z,3.08
2018-03-22T22:32:54.337Z,3.08
2018-03-22T22:35:22.724Z,3.07
2018-03-22T22:37:51.081Z,3.08
2018-03-22T22:40:19.437Z,3.11
2018-03-22T22:42:47.787Z,3.14
2018-03-22T22:45:16.186Z,3.22
2018-03-22T22:47:44.532Z,3.17
2018-03-22T22:50:12.908Z,3.19
2018-03-22T22:52:41.322Z,3.23
2018-03-22T22:55:09.637Z,3.24
2018-03-22T22:57:37.953Z,3.24
2018-03-22T23:00:06.287Z,3.26
2018-03-22T23:02:34.694Z,3.26
2018-03-22T23:05:03.026Z,3.26
2018-03-22T23:07:31.379Z,3.27
2018-03-22T23:09:59.697Z,3.30
2018-03-22T23:12:28.039Z,3.37
2018-03-22T23:14:56.377Z,3.41
2018-03-22T23:17:24.777Z,3.32
2018-03-22T23:19:53.102Z,3.33
2018-03-22T23:22:21.434Z,3.28
2018-03-22T23:24:49.790Z,3.33
2018-03-22T23:27:18.126Z,3.34
2018-03-22T23:29:46.501Z,3.32
2018-03-22T23:32:14.878Z,3.36
2018-03-22T23:34:43.201Z,3.35
2018-03-22T23:37:11.548Z,3.35
2018-03-22T23:39:39.849Z,3.31
2018-03-22T23:42:08.210Z,3.33
2018-03-22T23:44:36.524Z,3.30
2018-03-22T23:47:05.044Z,3.31
2018-03-22T23:49:33.363Z,3.32
2018-03-22T23:52:01.686Z,3.32
2018-03-22T23:54:30.164Z,3.31
2018-03-22T23:56:58.504Z,3.31
2018-03-22T23:59:26.885Z,3.29
